• Join FlightAware (Why Join?)
  • Login
  • US Flag 
05:13AM EDT


 

Airport Tracker/Info


-or-


 

Live Flight TrackerFlight Track Log ✈ DAL1981 ✈ 11-May-2013 ✈ KALB - KATL

Flight Track Log - Related Links

Times and Time Zones

All times are in EDT time to prevent confusion due to time zone crossing. See the DAL1981 flight status page for this flight to view local times or setup timezone preferences in your user account.

Time Position Orientation Groundspeed Altitude Reporting Facility
EDT Latitude Longitude Course Direction KTS MPH feet Rate Location/Type
06:10AM 42.7297 -73.8081 180° South 145 167 1,500  Level Boston Center
06:10AM 42.7006 -73.8244 202° Southwest 185 213 2,900 2,460 Climbing Boston Center
06:11AM 42.7022 -73.8583 274° West 238 274 4,500 2,820 Climbing Boston Center
06:12AM 42.7492 -73.9244 314° West 245 282 7,100 2,760 Climbing Boston Center
06:13AM 42.4490 -74.2208 198° South  Level Estimated
06:13AM 42.7878 -74.0075 302° West 256 295 10,100  Level Boston Center
06:14AM 42.3738 -74.3249 200° South  Level Estimated
06:14AM 42.7969 -74.0983 278° West 256 295 11,800  Level Boston Center
06:15AM 42.2984 -74.4288 180° South  Level Estimated
06:15AM 42.7219 -74.2233 231° Southwest 272 313 14,200  Level Boston Center
06:16AM 42.6311 -74.2997 212° Southwest 341 392 17,600 3,060 Climbing Boston Center
06:17AM 42.5331 -74.2997 180° South 336 387 20,400 2,340 Climbing Boston Center
06:18AM 42.4344 -74.2122 147° Southeast 350 403 22,300 1,680 Climbing Boston Center
06:19AM 42.3317 -74.1225 147° Southeast 391 450 23,800 1,440 Climbing Boston Center
06:20AM 42.2203 -74.0436 152° Southeast 425 489 25,200 1,680 Climbing Boston Center
06:21AM 42.1264 -74.0414 179° South 416 479 27,600 1,980 Climbing Boston Center
06:22AM 41.9736 -74.0933 194° South 401 461 29,600 1,680 Climbing Boston Center
06:23AM 41.8686 -74.1461 201° Southwest 401 461 31,000 1,500 Climbing Boston Center
06:24AM 41.7719 -74.1939 200° South 401 461 32,600 1,080 Climbing Boston Center
06:26AM 41.5650 -74.2950 200° South 391 450 34,400 780 Climbing New York Center
06:27AM 41.4678 -74.3425 200° South 362 417 35,000 420 Climbing New York Center
06:28AM 41.3664 -74.3922 200° South 362 417 35,300 300 Climbing New York Center
06:29AM 41.2753 -74.4400 202° Southwest 362 417 35,600 300 Climbing New York Center
06:30AM 41.1719 -74.4839 198° South 362 417 36,000 120 Climbing New York Center
06:31AM 41.0703 -74.5417 203° Southwest 362 417 35,900  Descending New York Center
06:32AM 40.9839 -74.6331 219° Southwest 393 452 36,000  Climbing New York Center
06:33AM 40.9056 -74.7356 225° Southwest 398 458 36,000  Level New York Center
06:34AM 40.8250 -74.8325 222° Southwest 398 458 36,000  Level New York Center
06:35AM 40.7358 -74.9394 222° Southwest 398 458 36,000  Level New York Center
06:36AM 40.6553 -75.0383 223° Southwest 398 458 36,000  Level New York Center
06:37AM 40.5767 -75.1347 223° Southwest 398 458 36,000  Level New York Center
06:38AM 40.5003 -75.2308 224° Southwest 398 458 36,000  Level New York Center
06:39AM 40.4194 -75.3264 222° Southwest 393 452 36,000  Level New York Center
06:40AM 40.3408 -75.4192 222° Southwest 393 452 36,000  Level New York Center
06:41AM 40.2642 -75.5147 224° Southwest 388 447 36,000  Level New York Center
06:42AM 40.1950 -75.6214 230° Southwest 388 447 36,000  Level New York Center
06:43AM 40.1383 -75.7342 237° Southwest 383 441 36,000  Level New York Center
06:44AM 40.0814 -75.8494 237° Southwest 383 441 36,000  Level New York Center
06:45AM 40.0244 -75.9592 236° Southwest 383 441 36,000  Level New York Center
06:46AM 39.9672 -76.0714 236° Southwest 377 434 36,000  Level New York Center
06:48AM 39.8892 -76.2242 236° Southwest 374 430 36,000  Level Washington Center
06:49AM 39.8300 -76.3372 236° Southwest 367 422 36,000  Level Washington Center
06:50AM 39.7772 -76.4419 237° Southwest 367 422 36,000  Level Washington Center
06:51AM 39.7161 -76.5600 236° Southwest 367 422 36,000  Level Washington Center
06:52AM 39.6608 -76.6697 237° Southwest 367 422 36,000  Level Washington Center
06:53AM 39.6036 -76.7767 235° Southwest 373 429 36,000  Level Washington Center
06:54AM 39.5442 -76.8858 235° Southwest 373 429 36,000  Level Washington Center
06:55AM 39.4847 -76.9925 234° Southwest 373 429 36,000  Level Washington Center
06:56AM 39.4025 -77.0742 218° Southwest 373 429 36,000  Level Washington Center
06:57AM 39.3283 -77.1639 223° Southwest 367 422 36,000  Level Washington Center
06:58AM 39.2583 -77.2614 227° Southwest 367 422 36,000  Level Washington Center
06:59AM 39.1922 -77.3564 228° Southwest 367 422 36,000  Level Washington Center
07:00AM 39.1219 -77.4536 227° Southwest 367 422 36,000  Level Washington Center
07:01AM 39.0558 -77.5456 227° Southwest 367 422 36,000  Level Washington Center
07:02AM 38.9919 -77.6319 226° Southwest 367 422 36,000  Level Washington Center
07:03AM 38.9194 -77.7342 228° Southwest 362 417 36,000  Level Washington Center
07:04AM 38.8594 -77.8150 226° Southwest 357 411 36,000  Level Washington Center
07:05AM 38.7889 -77.9114 227° Southwest 372 428 36,000  Level Washington Center
07:06AM 38.7203 -78.0025 226° Southwest 366 421 36,000  Level Washington Center
07:07AM 38.6539 -78.0906 226° Southwest 356 410 36,000  Level Washington Center
07:08AM 38.5872 -78.1839 228° Southwest 356 410 36,000  Level Washington Center
07:09AM 38.5208 -78.2744 227° Southwest 356 410 36,000  Level Washington Center
07:10AM 38.4561 -78.3650 228° Southwest 356 410 36,000  Level Washington Center
07:11AM 38.3894 -78.4553 227° Southwest 356 410 36,000  Level Washington Center
07:12AM 38.3203 -78.5478 226° Southwest 356 410 36,000  Level Washington Center
07:13AM 38.2578 -78.6381 229° Southwest 356 410 36,000  Level Washington Center
07:14AM 38.1908 -78.7278 227° Southwest 356 410 36,000  Level Washington Center
07:15AM 38.1172 -78.8250 226° Southwest 356 410 36,000  Level Washington Center
07:16AM 38.0458 -78.9219 227° Southwest 361 415 36,000  Level Washington Center
07:17AM 37.9764 -79.0111 225° Southwest 361 415 36,000  Level Washington Center
07:18AM 37.9092 -79.1003 226° Southwest 361 415 36,000  Level Washington Center
07:19AM 37.8483 -79.1842 227° Southwest 361 415 36,000  Level Washington Center
07:20AM 37.7831 -79.2756 228° Southwest 361 415 36,000  Level Washington Center
07:21AM 37.7089 -79.3769 227° Southwest 361 415 36,000  Level Washington Center
07:22AM 37.6392 -79.4681 226° Southwest 361 415 36,000  Level Washington Center
07:23AM 37.5736 -79.5642 229° Southwest 361 415 36,000  Level Washington Center
07:24AM 37.5081 -79.6525 227° Southwest 361 415 36,000  Level Washington Center
07:25AM 37.4467 -79.7356 227° Southwest 361 415 36,000  Level Washington Center
07:26AM 37.3786 -79.8336 229° Southwest 366 421 36,000  Level Washington Center
07:27AM 37.3042 -79.9289 226° Southwest 361 415 36,000  Level Washington Center
07:28AM 37.2383 -80.0189 227° Southwest 356 410 36,000  Level Washington Center
07:29AM 37.1256 -80.1733 228° Southwest 357 411 36,000  Level Atlanta Center
07:30AM 37.0575 -80.2625 226° Southwest 352 405 36,000  Level Atlanta Center
07:31AM 36.9894 -80.3539 227° Southwest 358 412 36,000  Level Atlanta Center
07:32AM 36.9211 -80.4428 226° Southwest 358 412 36,000 -540 Level Atlanta Center
07:33AM 36.8467 -80.5422 227° Southwest 358 412 35,000 -600 Descending Atlanta Center
07:34AM 36.7764 -80.6361 227° Southwest 358 412 34,800 -540 Descending Atlanta Center
07:35AM 36.7203 -80.7136 228° Southwest 353 406 34,000 -420 Descending Atlanta Center
07:36AM 36.6478 -80.8097 227° Southwest 358 412 34,000  Level Atlanta Center
07:37AM 36.5731 -80.9058 226° Southwest 365 420 34,000  Level Atlanta Center
07:38AM 36.5003 -81.0017 227° Southwest 382 440 34,000  Level Atlanta Center
07:39AM 36.4297 -81.0944 227° Southwest 377 434 34,000 -960 Level Atlanta Center
07:40AM 36.3569 -81.1925 227° Southwest 383 441 32,100 -1,980 Descending Atlanta Center
07:41AM 36.2842 -81.2906 227° Southwest 383 441 30,100 -1,080 Descending Atlanta Center
07:42AM 36.2050 -81.3908 226° Southwest 394 453 30,000 -60 Descending Atlanta Center
07:43AM 36.1217 -81.4992 226° Southwest 394 453 30,000  Level Atlanta Center
07:44AM 36.0467 -81.6017 228° Southwest 399 459 30,000  Level Atlanta Center
07:45AM 35.9692 -81.7014 226° Southwest 405 466 30,000  Level Atlanta Center
07:46AM 35.8939 -81.8008 227° Southwest 405 466 30,000  Level Atlanta Center
07:47AM 35.8125 -81.9056 226° Southwest 405 466 30,000  Level Atlanta Center
07:48AM 35.7347 -82.0050 226° Southwest 405 466 30,000  Level Atlanta Center
07:49AM 35.6572 -82.1039 226° Southwest 410 472 30,000  Level Atlanta Center
07:50AM 35.5753 -82.2056 225° Southwest 410 472 30,000 -600 Level Atlanta Center
07:51AM 35.4953 -82.3042 225° Southwest 410 472 28,900 -1,500 Descending Atlanta Center
07:52AM 35.4111 -82.4028 224° Southwest 417 480 27,100 -960 Descending Atlanta Center
07:53AM 35.3225 -82.4961 221° Southwest 422 486 27,000 -60 Descending Atlanta Center
07:54AM 35.2361 -82.5969 224° Southwest 428 493 27,000  Level Atlanta Center
07:55AM 35.1558 -82.6822 221° Southwest 428 493 27,000 -120 Level Atlanta Center
07:56AM 35.0692 -82.7750 221° Southwest 433 498 26,800 -720 Descending Atlanta Center
07:57AM 34.9806 -82.8778 224° Southwest 438 504 25,600 -1,200 Descending Atlanta Center
07:58AM 34.8894 -82.9675 219° Southwest 430 495 24,400 -840 Descending Atlanta Center
07:59AM 34.7983 -83.0700 223° Southwest 414 476 24,000 -240 Descending Atlanta Center
08:00AM 34.7158 -83.1644 223° Southwest 414 476 24,000  Level Atlanta Center
08:01AM 34.6308 -83.2589 222° Southwest 421 484 24,000  Level Atlanta Center
08:02AM 34.5394 -83.3528 220° Southwest 421 484 24,000 -420 Level Atlanta Center
08:03AM 34.4544 -83.4442 222° Southwest 416 479 23,200 -1,920 Descending Atlanta Center
08:04AM 34.3714 -83.5331 221° Southwest 411 473 20,200 -2,880 Descending Atlanta Center
08:05AM 34.2903 -83.6189 221° Southwest 401 461 17,500 -2,640 Descending Atlanta Center
08:06AM 34.2175 -83.6997 223° Southwest 380 437 15,000 -2,340 Descending Atlanta Center
08:07AM 34.1550 -83.7703 223° Southwest 359 413 12,900 -1,500 Descending Atlanta Center
08:08AM 34.0883 -83.8381 220° Southwest 328 377 12,000 -1,140 Descending Atlanta Center
08:09AM 34.0342 -83.8983 223° Southwest 292 336 10,700 -1,800 Descending Atlanta Center
08:10AM 34.0000 -83.9333 220° Southwest 271 312 9,400 -1,140 Descending Atlanta TRACON
08:11AM 33.9333 -83.9500 192° South 289 333 9,100 -180 Descending Atlanta TRACON
08:12AM 33.8500 -83.9333 171° South 289 333 9,100 -120 Level Atlanta TRACON
08:12AM 33.8067 -83.9339 181° South 278 320 9,000 -480 Descending Atlanta Center
08:13AM 33.7275 -83.9314 178° South 284 327 8,400 -1,020 Descending Atlanta Center
08:14AM 33.6522 -83.9339 182° South 284 327 7,000 -660 Descending Atlanta Center
08:15AM 33.6231 -83.9839 235° Southwest 222 255 7,100 -480 Climbing Atlanta Center
08:18AM 33.6333 -84.1333 275° West 180 207 5,400 -720 Descending Atlanta TRACON
08:19AM 33.6333 -84.2000 270° West 181 208 4,600 -900 Descending Atlanta TRACON
08:20AM 33.6333 -84.2500 270° West 179 206 3,600 -960 Descending Atlanta TRACON
08:21AM 33.6333 -84.3167 270° West 169 194 2,700 -900 Descending Atlanta TRACON